sensor_id;sensor_type;location;lat;lon;timestamp;pressure;altitude;pressure_sealevel;temperature;humidity
50292;BME280;36190;54.980;73.388;2023-06-14T00:01:58;100951.72;;;11.72;54.28
50292;BME280;36190;54.980;73.388;2023-06-14T00:04:26;100959.72;;;11.72;54.34
50292;BME280;36190;54.980;73.388;2023-06-14T00:06:55;100943.50;;;11.65;54.19
50292;BME280;36190;54.980;73.388;2023-06-14T00:09:25;100962.75;;;11.77;54.31
50292;BME280;36190;54.980;73.388;2023-06-14T00:11:52;100959.75;;;11.80;54.16
50292;BME280;36190;54.980;73.388;2023-06-14T00:14:20;100962.78;;;11.86;54.25
50292;BME280;36190;54.980;73.388;2023-06-14T00:16:47;100958.97;;;11.88;54.04
50292;BME280;36190;54.980;73.388;2023-06-14T00:19:15;100969.50;;;11.90;53.89
50292;BME280;36190;54.980;73.388;2023-06-14T00:21:42;100974.66;;;11.91;53.82
50292;BME280;36190;54.980;73.388;2023-06-14T00:24:10;100973.84;;;11.91;53.61
50292;BME280;36190;54.980;73.388;2023-06-14T00:26:38;100969.31;;;11.91;53.69
50292;BME280;36190;54.980;73.388;2023-06-14T00:29:06;100972.88;;;12.00;53.45
50292;BME280;36190;54.980;73.388;2023-06-14T00:31:33;100971.50;;;11.96;53.05
50292;BME280;36190;54.980;73.388;2023-06-14T00:34:01;100973.84;;;11.91;53.21
50292;BME280;36190;54.980;73.388;2023-06-14T00:36:28;100976.66;;;11.89;53.02
50292;BME280;36190;54.980;73.388;2023-06-14T00:38:56;100974.88;;;11.98;52.75
50292;BME280;36190;54.980;73.388;2023-06-14T00:41:23;100980.44;;;12.13;52.42
50292;BME280;36190;54.980;73.388;2023-06-14T00:43:52;100976.63;;;12.24;52.04
50292;BME280;36190;54.980;73.388;2023-06-14T00:46:22;100981.13;;;12.32;51.66
50292;BME280;36190;54.980;73.388;2023-06-14T00:48:50;100974.13;;;12.31;51.57
50292;BME280;36190;54.980;73.388;2023-06-14T00:51:17;100984.31;;;12.27;51.54
50292;BME280;36190;54.980;73.388;2023-06-14T00:53:45;100985.97;;;12.28;51.46
50292;BME280;36190;54.980;73.388;2023-06-14T00:56:14;100984.47;;;12.34;51.47
50292;BME280;36190;54.980;73.388;2023-06-14T00:58:42;100984.16;;;12.45;51.25
50292;BME280;36190;54.980;73.388;2023-06-14T01:01:11;100989.38;;;12.55;51.09
50292;BME280;36190;54.980;73.388;2023-06-14T01:03:39;100989.53;;;12.62;50.98
50292;BME280;36190;54.980;73.388;2023-06-14T01:06:17;100992.38;;;12.69;50.80
50292;BME280;36190;54.980;73.388;2023-06-14T01:09:01;100988.53;;;12.71;50.79
50292;BME280;36190;54.980;73.388;2023-06-14T01:11:35;100977.97;;;12.70;50.61
50292;BME280;36190;54.980;73.388;2023-06-14T01:14:03;100998.41;;;12.96;50.39
50292;BME280;36190;54.980;73.388;2023-06-14T01:16:35;100997.69;;;13.10;50.12
50292;BME280;36190;54.980;73.388;2023-06-14T01:19:05;101006.84;;;13.24;50.13
50292;BME280;36190;54.980;73.388;2023-06-14T01:21:35;100996.63;;;13.36;49.88
50292;BME280;36190;54.980;73.388;2023-06-14T01:24:09;101003.69;;;13.45;49.82
50292;BME280;36190;54.980;73.388;2023-06-14T01:26:37;101002.16;;;13.51;49.71
50292;BME280;36190;54.980;73.388;2023-06-14T01:29:12;101001.94;;;13.61;49.69
50292;BME280;36190;54.980;73.388;2023-06-14T01:31:44;101008.28;;;13.68;49.51
50292;BME280;36190;54.980;73.388;2023-06-14T01:34:11;101007.94;;;13.71;49.42
50292;BME280;36190;54.980;73.388;2023-06-14T01:36:41;100998.19;;;13.79;49.33
50292;BME280;36190;54.980;73.388;2023-06-14T01:39:10;101010.22;;;13.83;49.21
50292;BME280;36190;54.980;73.388;2023-06-14T01:41:39;101008.00;;;13.95;49.06
50292;BME280;36190;54.980;73.388;2023-06-14T01:44:07;101014.34;;;14.02;48.59
50292;BME280;36190;54.980;73.388;2023-06-14T01:46:36;101011.13;;;14.07;48.63
50292;BME280;36190;54.980;73.388;2023-06-14T01:49:04;101016.97;;;14.10;48.38
50292;BME280;36190;54.980;73.388;2023-06-14T01:51:31;101008.38;;;14.15;48.14
50292;BME280;36190;54.980;73.388;2023-06-14T01:53:59;101005.66;;;14.23;48.03
50292;BME280;36190;54.980;73.388;2023-06-14T01:56:28;101008.66;;;14.28;47.76
50292;BME280;36190;54.980;73.388;2023-06-14T01:58:56;101009.63;;;14.36;47.78
50292;BME280;36190;54.980;73.388;2023-06-14T02:01:23;101011.03;;;14.47;47.23
50292;BME280;36190;54.980;73.388;2023-06-14T02:03:52;101005.59;;;14.55;47.02
50292;BME280;36190;54.980;73.388;2023-06-14T02:06:19;101004.22;;;14.59;46.80
50292;BME280;36190;54.980;73.388;2023-06-14T02:08:47;101005.19;;;14.66;46.58
50292;BME280;36190;54.980;73.388;2023-06-14T02:11:15;101005.81;;;14.77;46.08
50292;BME280;36190;54.980;73.388;2023-06-14T02:13:44;101005.91;;;14.83;45.46
50292;BME280;36190;54.980;73.388;2023-06-14T02:16:11;101002.50;;;14.90;44.96
50292;BME280;36190;54.980;73.388;2023-06-14T02:18:40;100998.44;;;14.94;44.77
50292;BME280;36190;54.980;73.388;2023-06-14T02:21:07;101002.06;;;15.01;44.33
50292;BME280;36190;54.980;73.388;2023-06-14T02:23:35;100999.66;;;15.06;43.99
50292;BME280;36190;54.980;73.388;2023-06-14T02:26:02;100998.28;;;15.10;43.41
50292;BME280;36190;54.980;73.388;2023-06-14T02:28:30;100996.25;;;15.12;42.84
50292;BME280;36190;54.980;73.388;2023-06-14T02:30:58;100986.88;;;15.08;42.15
50292;BME280;36190;54.980;73.388;2023-06-14T02:33:26;100995.22;;;15.13;41.93
50292;BME280;36190;54.980;73.388;2023-06-14T02:35:53;100997.81;;;15.22;42.09
50292;BME280;36190;54.980;73.388;2023-06-14T02:38:22;100997.09;;;15.28;41.71
50292;BME280;36190;54.980;73.388;2023-06-14T02:40:49;100996.69;;;15.31;41.43
50292;BME280;36190;54.980;73.388;2023-06-14T02:43:17;100997.00;;;15.36;41.12
50292;BME280;36190;54.980;73.388;2023-06-14T02:45:45;100995.88;;;15.46;40.96
50292;BME280;36190;54.980;73.388;2023-06-14T02:48:14;101005.50;;;15.55;40.80
50292;BME280;36190;54.980;73.388;2023-06-14T02:50:42;100997.72;;;15.60;40.52
50292;BME280;36190;54.980;73.388;2023-06-14T02:53:10;100994.03;;;15.61;40.50
50292;BME280;36190;54.980;73.388;2023-06-14T02:55:37;100994.31;;;15.66;40.23
50292;BME280;36190;54.980;73.388;2023-06-14T02:58:05;100994.94;;;15.68;40.15
50292;BME280;36190;54.980;73.388;2023-06-14T03:00:33;100991.88;;;15.72;40.06
50292;BME280;36190;54.980;73.388;2023-06-14T03:03:00;100996.50;;;15.78;40.14
50292;BME280;36190;54.980;73.388;2023-06-14T03:05:31;100996.13;;;15.81;39.75
50292;BME280;36190;54.980;73.388;2023-06-14T03:07:59;100985.63;;;15.86;39.57
50292;BME280;36190;54.980;73.388;2023-06-14T03:10:26;100981.38;;;15.92;39.53
50292;BME280;36190;54.980;73.388;2023-06-14T03:12:54;100978.00;;;16.05;39.38
50292;BME280;36190;54.980;73.388;2023-06-14T03:15:22;100970.00;;;16.12;39.10
50292;BME280;36190;54.980;73.388;2023-06-14T03:17:50;100970.34;;;16.24;39.00
50292;BME280;36190;54.980;73.388;2023-06-14T03:20:19;100976.50;;;16.39;38.64
50292;BME280;36190;54.980;73.388;2023-06-14T03:22:48;100972.66;;;16.48;38.28
50292;BME280;36190;54.980;73.388;2023-06-14T03:25:16;100969.56;;;16.52;37.74
50292;BME280;36190;54.980;73.388;2023-06-14T03:27:44;100971.03;;;16.54;37.24
50292;BME280;36190;54.980;73.388;2023-06-14T03:30:12;100973.31;;;16.57;36.76
50292;BME280;36190;54.980;73.388;2023-06-14T03:32:40;100977.50;;;16.60;36.09
50292;BME280;36190;54.980;73.388;2023-06-14T03:35:08;100985.59;;;16.60;35.51
50292;BME280;36190;54.980;73.388;2023-06-14T03:37:42;100972.13;;;16.60;35.27
50292;BME280;36190;54.980;73.388;2023-06-14T03:40:13;100973.41;;;16.64;34.99
50292;BME280;36190;54.980;73.388;2023-06-14T03:42:40;100964.94;;;16.67;34.92
50292;BME280;36190;54.980;73.388;2023-06-14T03:45:08;100970.16;;;16.75;34.74
50292;BME280;36190;54.980;73.388;2023-06-14T03:47:36;100971.50;;;16.86;34.69
50292;BME280;36190;54.980;73.388;2023-06-14T03:50:05;100975.69;;;16.89;34.32
50292;BME280;36190;54.980;73.388;2023-06-14T03:52:32;100969.88;;;16.92;33.99
50292;BME280;36190;54.980;73.388;2023-06-14T03:55:00;100957.94;;;17.01;34.02
50292;BME280;36190;54.980;73.388;2023-06-14T03:57:29;100957.97;;;17.08;33.55
50292;BME280;36190;54.980;73.388;2023-06-14T03:59:57;100961.38;;;17.17;33.65
50292;BME280;36190;54.980;73.388;2023-06-14T04:02:24;100953.53;;;17.22;33.47
50292;BME280;36190;54.980;73.388;2023-06-14T04:04:54;100963.91;;;17.25;33.39
50292;BME280;36190;54.980;73.388;2023-06-14T04:07:22;100955.63;;;17.27;33.16
50292;BME280;36190;54.980;73.388;2023-06-14T04:09:49;100956.84;;;17.24;33.13
50292;BME280;36190;54.980;73.388;2023-06-14T04:12:17;100961.38;;;17.24;32.94
50292;BME280;36190;54.980;73.388;2023-06-14T04:14:46;100953.13;;;17.25;32.87
50292;BME280;36190;54.980;73.388;2023-06-14T04:17:14;100956.06;;;17.30;32.71
50292;BME280;36190;54.980;73.388;2023-06-14T04:19:41;100946.53;;;17.35;32.70
50292;BME280;36190;54.980;73.388;2023-06-14T04:22:08;100954.84;;;17.40;32.60
50292;BME280;36190;54.980;73.388;2023-06-14T04:24:36;100949.09;;;17.50;32.48
50292;BME280;36190;54.980;73.388;2023-06-14T04:27:04;100941.66;;;17.58;32.25
50292;BME280;36190;54.980;73.388;2023-06-14T04:29:32;100939.19;;;17.64;31.89
50292;BME280;36190;54.980;73.388;2023-06-14T04:32:01;100937.53;;;17.63;31.91
50292;BME280;36190;54.980;73.388;2023-06-14T04:34:28;100945.84;;;17.68;32.02
50292;BME280;36190;54.980;73.388;2023-06-14T04:36:59;100942.75;;;17.71;31.98
50292;BME280;36190;54.980;73.388;2023-06-14T04:39:27;100941.72;;;17.79;31.82
50292;BME280;36190;54.980;73.388;2023-06-14T04:41:54;100934.28;;;17.87;31.70
50292;BME280;36190;54.980;73.388;2023-06-14T04:44:26;100933.88;;;17.91;31.73
50292;BME280;36190;54.980;73.388;2023-06-14T04:46:57;100938.03;;;18.00;31.72
50292;BME280;36190;54.980;73.388;2023-06-14T04:49:26;100932.69;;;18.07;31.46
50292;BME280;36190;54.980;73.388;2023-06-14T04:51:56;100937.06;;;18.14;31.44
50292;BME280;36190;54.980;73.388;2023-06-14T04:54:25;100931.03;;;18.19;31.27
50292;BME280;36190;54.980;73.388;2023-06-14T04:56:52;100928.16;;;18.21;30.92
50292;BME280;36190;54.980;73.388;2023-06-14T04:59:21;100927.09;;;18.15;30.75
50292;BME280;36190;54.980;73.388;2023-06-14T05:01:49;100927.31;;;18.13;30.63
50292;BME280;36190;54.980;73.388;2023-06-14T05:04:19;100922.72;;;18.14;30.41
50292;BME280;36190;54.980;73.388;2023-06-14T05:06:48;100924.41;;;18.22;30.18
50292;BME280;36190;54.980;73.388;2023-06-14T05:09:16;100915.25;;;18.30;30.28
50292;BME280;36190;54.980;73.388;2023-06-14T05:11:43;100913.59;;;18.42;30.39
50292;BME280;36190;54.980;73.388;2023-06-14T05:14:11;100920.66;;;18.50;29.93
50292;BME280;36190;54.980;73.388;2023-06-14T05:16:39;100923.16;;;18.51;29.93
50292;BME280;36190;54.980;73.388;2023-06-14T05:19:07;100929.78;;;18.55;29.82
50292;BME280;36190;54.980;73.388;2023-06-14T05:21:36;100904.66;;;18.41;29.85
50292;BME280;36190;54.980;73.388;2023-06-14T05:24:05;100920.66;;;18.50;29.92
50292;BME280;36190;54.980;73.388;2023-06-14T05:26:34;100918.19;;;18.55;29.85
50292;BME280;36190;54.980;73.388;2023-06-14T05:29:02;100912.34;;;18.58;29.65
50292;BME280;36190;54.980;73.388;2023-06-14T05:31:29;100912.34;;;18.58;29.50
50292;BME280;36190;54.980;73.388;2023-06-14T05:33:57;100912.13;;;18.66;29.54
50292;BME280;36190;54.980;73.388;2023-06-14T05:36:24;100892.38;;;18.73;29.35
50292;BME280;36190;54.980;73.388;2023-06-14T05:38:53;100894.44;;;18.84;29.33
50292;BME280;36190;54.980;73.388;2023-06-14T05:41:26;100885.06;;;18.93;29.16
50292;BME280;36190;54.980;73.388;2023-06-14T05:43:55;100898.16;;;19.03;28.91
50292;BME280;36190;54.980;73.388;2023-06-14T05:46:23;100879.84;;;18.99;29.16
50292;BME280;36190;54.980;73.388;2023-06-14T05:48:51;100887.53;;;19.08;29.19
50292;BME280;36190;54.980;73.388;2023-06-14T05:51:19;100879.00;;;19.18;29.30
50292;BME280;36190;54.980;73.388;2023-06-14T05:53:47;100879.16;;;19.23;29.19
50292;BME280;36190;54.980;73.388;2023-06-14T05:56:15;100874.78;;;19.29;29.09
50292;BME280;36190;54.980;73.388;2023-06-14T05:58:45;100890.38;;;19.27;29.19
50292;BME280;36190;54.980;73.388;2023-06-14T06:01:13;100867.09;;;19.26;29.02
50292;BME280;36190;54.980;73.388;2023-06-14T06:03:41;100870.63;;;19.27;28.97
50292;BME280;36190;54.980;73.388;2023-06-14T06:06:11;100865.22;;;19.27;28.77
50292;BME280;36190;54.980;73.388;2023-06-14T06:08:39;100859.97;;;19.32;28.82
50292;BME280;36190;54.980;73.388;2023-06-14T06:11:07;100862.44;;;19.40;28.76
50292;BME280;36190;54.980;73.388;2023-06-14T06:13:35;100851.88;;;19.32;28.72
50292;BME280;36190;54.980;73.388;2023-06-14T06:16:04;100863.50;;;19.39;28.68
50292;BME280;36190;54.980;73.388;2023-06-14T06:18:32;100859.72;;;19.40;28.63
50292;BME280;36190;54.980;73.388;2023-06-14T06:20:59;100848.50;;;19.43;28.58
50292;BME280;36190;54.980;73.388;2023-06-14T06:23:27;100854.25;;;19.54;28.55
50292;BME280;36190;54.980;73.388;2023-06-14T06:25:54;100853.41;;;19.60;28.38
50292;BME280;36190;54.980;73.388;2023-06-14T06:28:21;100850.69;;;19.60;28.38
50292;BME280;36190;54.980;73.388;2023-06-14T06:30:49;100839.22;;;19.64;28.51
50292;BME280;36190;54.980;73.388;2023-06-14T06:33:18;100840.81;;;19.72;28.29
50292;BME280;36190;54.980;73.388;2023-06-14T06:35:45;100825.81;;;19.76;28.18
50292;BME280;36190;54.980;73.388;2023-06-14T06:38:13;100834.09;;;19.82;28.23
50292;BME280;36190;54.980;73.388;2023-06-14T06:40:40;100824.31;;;19.81;28.41
50292;BME280;36190;54.980;73.388;2023-06-14T06:43:09;100825.09;;;19.88;28.32
50292;BME280;36190;54.980;73.388;2023-06-14T06:45:39;100812.16;;;19.97;28.29
50292;BME280;36190;54.980;73.388;2023-06-14T06:48:06;100808.94;;;20.06;28.17
50292;BME280;36190;54.980;73.388;2023-06-14T06:50:37;100816.78;;;20.15;28.34
50292;BME280;36190;54.980;73.388;2023-06-14T06:53:04;100810.47;;;20.21;28.36
50292;BME280;36190;54.980;73.388;2023-06-14T06:55:32;100815.00;;;20.27;28.34
50292;BME280;36190;54.980;73.388;2023-06-14T06:58:00;100803.03;;;20.35;28.19
50292;BME280;36190;54.980;73.388;2023-06-14T07:00:27;100800.28;;;20.42;28.02
50292;BME280;36190;54.980;73.388;2023-06-14T07:02:55;100795.63;;;20.49;27.79
50292;BME280;36190;54.980;73.388;2023-06-14T07:05:23;100792.91;;;20.68;27.54
50292;BME280;36190;54.980;73.388;2023-06-14T07:07:51;100808.88;;;20.95;27.41
50292;BME280;36190;54.980;73.388;2023-06-14T07:10:19;100803.31;;;21.08;26.97
50292;BME280;36190;54.980;73.388;2023-06-14T07:12:46;100806.34;;;21.00;26.70
50292;BME280;36190;54.980;73.388;2023-06-14T07:15:14;100804.63;;;20.87;26.75
50292;BME280;36190;54.980;73.388;2023-06-14T07:17:41;100796.97;;;20.77;26.80
50292;BME280;36190;54.980;73.388;2023-06-14T07:20:10;100798.34;;;20.86;26.93
50292;BME280;36190;54.980;73.388;2023-06-14T07:22:39;100788.69;;;21.09;26.65
50292;BME280;36190;54.980;73.388;2023-06-14T07:25:10;100774.75;;;21.36;26.35
50292;BME280;36190;54.980;73.388;2023-06-14T07:27:40;100780.72;;;21.57;26.14
50292;BME280;36190;54.980;73.388;2023-06-14T07:30:08;100788.16;;;21.62;25.72
50292;BME280;36190;54.980;73.388;2023-06-14T07:32:36;100786.28;;;21.62;25.80
50292;BME280;36190;54.980;73.388;2023-06-14T07:35:04;100772.00;;;21.67;25.71
50292;BME280;36190;54.980;73.388;2023-06-14T07:37:32;100771.81;;;21.80;25.39
50292;BME280;36190;54.980;73.388;2023-06-14T07:39:59;100766.75;;;21.96;25.14
50292;BME280;36190;54.980;73.388;2023-06-14T07:42:30;100767.47;;;22.03;24.97
50292;BME280;36190;54.980;73.388;2023-06-14T07:44:59;100771.94;;;22.21;25.05
50292;BME280;36190;54.980;73.388;2023-06-14T07:47:26;100760.34;;;22.38;24.89
50292;BME280;36190;54.980;73.388;2023-06-14T07:49:53;100763.78;;;22.57;24.81
50292;BME280;36190;54.980;73.388;2023-06-14T07:52:21;100755.81;;;22.79;24.56
50292;BME280;36190;54.980;73.388;2023-06-14T07:54:48;100751.47;;;22.96;24.44
50292;BME280;36190;54.980;73.388;2023-06-14T07:57:16;100745.34;;;23.17;24.27
50292;BME280;36190;54.980;73.388;2023-06-14T07:59:47;100747.56;;;23.49;24.01
50292;BME280;36190;54.980;73.388;2023-06-14T08:02:14;100753.09;;;23.72;23.59
50292;BME280;36190;54.980;73.388;2023-06-14T08:04:42;100748.31;;;23.79;23.44
50292;BME280;36190;54.980;73.388;2023-06-14T08:07:09;100748.72;;;24.05;23.55
50292;BME280;36190;54.980;73.388;2023-06-14T08:09:37;100746.00;;;24.44;23.19
50292;BME280;36190;54.980;73.388;2023-06-14T08:12:05;100739.22;;;24.69;23.02
50292;BME280;36190;54.980;73.388;2023-06-14T08:14:35;100748.13;;;24.82;22.61
50292;BME280;36190;54.980;73.388;2023-06-14T08:17:04;100757.59;;;25.02;22.80
50292;BME280;36190;54.980;73.388;2023-06-14T08:19:32;100740.75;;;25.10;22.41
50292;BME280;36190;54.980;73.388;2023-06-14T08:21:59;100742.63;;;25.32;22.24
50292;BME280;36190;54.980;73.388;2023-06-14T08:24:27;100746.63;;;25.51;22.14
50292;BME280;36190;54.980;73.388;2023-06-14T08:26:55;100739.59;;;25.61;21.93
50292;BME280;36190;54.980;73.388;2023-06-14T08:29:23;100745.13;;;25.66;21.88
50292;BME280;36190;54.980;73.388;2023-06-14T08:31:50;100737.72;;;25.66;21.94
50292;BME280;36190;54.980;73.388;2023-06-14T08:34:19;100736.06;;;25.98;21.50
50292;BME280;36190;54.980;73.388;2023-06-14T08:36:49;100734.72;;;26.59;21.31
50292;BME280;36190;54.980;73.388;2023-06-14T08:39:17;100729.63;;;26.89;20.72
50292;BME280;36190;54.980;73.388;2023-06-14T08:41:46;100723.31;;;26.78;21.11
50292;BME280;36190;54.980;73.388;2023-06-14T08:44:14;100708.47;;;26.63;21.21
50292;BME280;36190;54.980;73.388;2023-06-14T08:46:42;100714.75;;;26.64;21.00
50292;BME280;36190;54.980;73.388;2023-06-14T08:49:11;100709.00;;;26.55;21.14
50292;BME280;36190;54.980;73.388;2023-06-14T08:51:42;100693.34;;;26.35;21.07
50292;BME280;36190;54.980;73.388;2023-06-14T08:54:11;100714.78;;;26.69;21.09
50292;BME280;36190;54.980;73.388;2023-06-14T08:56:40;100701.47;;;27.25;21.10
50292;BME280;36190;54.980;73.388;2023-06-14T08:59:09;100696.00;;;27.51;20.51
50292;BME280;36190;54.980;73.388;2023-06-14T09:01:37;100690.00;;;27.43;20.73
50292;BME280;36190;54.980;73.388;2023-06-14T09:04:05;100690.53;;;27.09;20.74
50292;BME280;36190;54.980;73.388;2023-06-14T09:06:33;100693.75;;;26.80;20.80
50292;BME280;36190;54.980;73.388;2023-06-14T09:09:04;100684.13;;;26.62;21.09
50292;BME280;36190;54.980;73.388;2023-06-14T09:11:33;100672.59;;;26.49;20.89
50292;BME280;36190;54.980;73.388;2023-06-14T09:14:02;100685.66;;;26.27;21.19
50292;BME280;36190;54.980;73.388;2023-06-14T09:16:32;100676.88;;;25.76;21.21
50292;BME280;36190;54.980;73.388;2023-06-14T09:19:00;100675.44;;;25.31;21.90
50292;BME280;36190;54.980;73.388;2023-06-14T09:21:28;100681.72;;;24.76;22.54
50292;BME280;36190;54.980;73.388;2023-06-14T09:24:03;100680.56;;;24.22;23.11
50292;BME280;36190;54.980;73.388;2023-06-14T09:26:31;100680.25;;;24.01;23.62
50292;BME280;36190;54.980;73.388;2023-06-14T09:28:59;100672.13;;;23.84;23.66
50292;BME280;36190;54.980;73.388;2023-06-14T09:31:26;100666.16;;;24.27;23.56
50292;BME280;36190;54.980;73.388;2023-06-14T09:33:57;100670.63;;;25.10;22.55
50292;BME280;36190;54.980;73.388;2023-06-14T09:36:25;100664.66;;;25.89;22.06
50292;BME280;36190;54.980;73.388;2023-06-14T09:38:53;100658.13;;;26.64;21.55
50292;BME280;36190;54.980;73.388;2023-06-14T09:41:30;100656.56;;;27.15;20.95
50292;BME280;36190;54.980;73.388;2023-06-14T09:43:59;100660.13;;;27.42;20.77
50292;BME280;36190;54.980;73.388;2023-06-14T09:46:28;100654.38;;;27.69;20.53
50292;BME280;36190;54.980;73.388;2023-06-14T09:48:56;100659.75;;;28.00;20.27
50292;BME280;36190;54.980;73.388;2023-06-14T09:51:24;100651.41;;;28.37;19.87
50292;BME280;36190;54.980;73.388;2023-06-14T09:53:52;100654.81;;;28.63;19.82
50292;BME280;36190;54.980;73.388;2023-06-14T09:56:25;100640.75;;;28.75;19.29
50292;BME280;36190;54.980;73.388;2023-06-14T09:58:56;100637.75;;;29.12;19.44
50292;BME280;36190;54.980;73.388;2023-06-14T10:01:25;100641.66;;;29.35;19.18
50292;BME280;36190;54.980;73.388;2023-06-14T10:03:55;100644.97;;;29.61;19.13
50292;BME280;36190;54.980;73.388;2023-06-14T10:06:26;100634.00;;;29.86;18.49
50292;BME280;36190;54.980;73.388;2023-06-14T10:08:57;100619.22;;;30.44;18.23
50292;BME280;36190;54.980;73.388;2023-06-14T10:11:27;100619.22;;;31.16;18.03
50292;BME280;36190;54.980;73.388;2023-06-14T10:13:55;100624.34;;;31.84;17.72
50292;BME280;36190;54.980;73.388;2023-06-14T10:16:27;100615.34;;;31.92;17.35
50292;BME280;36190;54.980;73.388;2023-06-14T10:19:02;100632.81;;;32.02;17.20
50292;BME280;36190;54.980;73.388;2023-06-14T10:21:37;100618.09;;;32.06;17.20
50292;BME280;36190;54.980;73.388;2023-06-14T10:24:12;100618.66;;;32.31;17.18
50292;BME280;36190;54.980;73.388;2023-06-14T10:26:53;100603.53;;;32.65;17.21
50292;BME280;36190;54.980;73.388;2023-06-14T10:29:21;100603.53;;;32.88;16.78
50292;BME280;36190;54.980;73.388;2023-06-14T10:31:49;100599.16;;;33.10;16.51
50292;BME280;36190;54.980;73.388;2023-06-14T10:34:27;100595.84;;;33.71;16.39
50292;BME280;36190;54.980;73.388;2023-06-14T10:37:02;100602.88;;;33.95;16.12
50292;BME280;36190;54.980;73.388;2023-06-14T10:39:30;100605.97;;;33.85;16.11
50292;BME280;36190;54.980;73.388;2023-06-14T10:42:01;100601.09;;;33.91;16.02
50292;BME280;36190;54.980;73.388;2023-06-14T10:44:41;100601.16;;;34.08;16.55
50292;BME280;36190;54.980;73.388;2023-06-14T10:47:11;100595.38;;;33.87;16.15
50292;BME280;36190;54.980;73.388;2023-06-14T10:49:50;100586.81;;;33.97;16.10
50292;BME280;36190;54.980;73.388;2023-06-14T10:52:22;100578.31;;;33.85;15.99
50292;BME280;36190;54.980;73.388;2023-06-14T10:55:00;100577.13;;;33.68;16.03
50292;BME280;36190;54.980;73.388;2023-06-14T10:57:32;100570.41;;;33.52;15.97
50292;BME280;36190;54.980;73.388;2023-06-14T10:59:59;100561.28;;;34.09;15.84
50292;BME280;36190;54.980;73.388;2023-06-14T11:05:48;100555.91;;;34.31;15.71
50292;BME280;36190;54.980;73.388;2023-06-14T11:08:40;100564.31;;;33.99;15.84
50292;BME280;36190;54.980;73.388;2023-06-14T11:11:17;100557.59;;;33.65;16.00
50292;BME280;36190;54.980;73.388;2023-06-14T11:13:47;100548.34;;;33.87;15.91
50292;BME280;36190;54.980;73.388;2023-06-14T11:16:16;100542.38;;;34.29;15.83
50292;BME280;36190;54.980;73.388;2023-06-14T11:18:44;100534.09;;;34.55;15.70
50292;BME280;36190;54.980;73.388;2023-06-14T11:21:16;100535.31;;;34.84;15.48
50292;BME280;36190;54.980;73.388;2023-06-14T11:23:49;100537.78;;;35.25;15.45
50292;BME280;36190;54.980;73.388;2023-06-14T11:26:24;100525.28;;;35.49;15.22
50292;BME280;36190;54.980;73.388;2023-06-14T11:28:57;100523.84;;;35.94;15.04
50292;BME280;36190;54.980;73.388;2023-06-14T11:31:25;100526.59;;;36.58;14.73
50292;BME280;36190;54.980;73.388;2023-06-14T11:33:54;100522.25;;;36.82;14.39
50292;BME280;36190;54.980;73.388;2023-06-14T11:36:22;100517.47;;;36.70;14.74
50292;BME280;36190;54.980;73.388;2023-06-14T11:38:58;100512.38;;;36.38;14.43
50292;BME280;36190;54.980;73.388;2023-06-14T11:41:26;100518.44;;;36.19;14.80
50292;BME280;36190;54.980;73.388;2023-06-14T11:44:02;100508.00;;;36.37;14.80
50292;BME280;36190;54.980;73.388;2023-06-14T11:46:29;100508.59;;;36.89;14.28
50292;BME280;36190;54.980;73.388;2023-06-14T11:48:57;100508.41;;;37.19;13.90
50292;BME280;36190;54.980;73.388;2023-06-14T11:51:24;100509.06;;;37.53;14.00
50292;BME280;36190;54.980;73.388;2023-06-14T11:53:53;100500.03;;;37.69;14.17
50292;BME280;36190;54.980;73.388;2023-06-14T11:56:21;100495.34;;;37.86;14.04
50292;BME280;36190;54.980;73.388;2023-06-14T11:58:49;100504.44;;;37.70;13.99
50292;BME280;36190;54.980;73.388;2023-06-14T12:01:18;100496.34;;;37.15;13.85
50292;BME280;36190;54.980;73.388;2023-06-14T12:03:49;100482.88;;;36.67;14.26
50292;BME280;36190;54.980;73.388;2023-06-14T12:06:26;100486.59;;;36.96;14.20
50292;BME280;36190;54.980;73.388;2023-06-14T12:08:58;100485.78;;;36.96;14.21
50292;BME280;36190;54.980;73.388;2023-06-14T12:11:32;100481.31;;;37.16;14.17
50292;BME280;36190;54.980;73.388;2023-06-14T12:14:00;100481.50;;;37.36;14.00
50292;BME280;36190;54.980;73.388;2023-06-14T12:16:32;100479.97;;;38.04;13.77
50292;BME280;36190;54.980;73.388;2023-06-14T12:19:08;100466.28;;;38.72;13.49
50292;BME280;36190;54.980;73.388;2023-06-14T12:21:37;100466.84;;;39.46;13.21
50292;BME280;36190;54.980;73.388;2023-06-14T12:24:06;100472.41;;;39.46;13.23
50292;BME280;36190;54.980;73.388;2023-06-14T12:26:38;100465.03;;;39.54;12.71
50292;BME280;36190;54.980;73.388;2023-06-14T12:29:06;100468.16;;;39.16;12.90
50292;BME280;36190;54.980;73.388;2023-06-14T12:31:35;100461.28;;;38.49;13.22
50292;BME280;36190;54.980;73.388;2023-06-14T12:34:03;100463.75;;;38.51;13.18
50292;BME280;36190;54.980;73.388;2023-06-14T12:36:30;100458.69;;;38.41;13.45
50292;BME280;36190;54.980;73.388;2023-06-14T12:39:01;100457.16;;;38.43;13.39
50292;BME280;36190;54.980;73.388;2023-06-14T12:41:30;100465.09;;;38.13;13.62
50292;BME280;36190;54.980;73.388;2023-06-14T12:43:57;100455.56;;;37.56;13.70
50292;BME280;36190;54.980;73.388;2023-06-14T12:46:25;100452.56;;;37.24;13.88
50292;BME280;36190;54.980;73.388;2023-06-14T12:48:54;100446.06;;;37.20;13.97
50292;BME280;36190;54.980;73.388;2023-06-14T12:51:21;100448.16;;;37.11;14.38
50292;BME280;36190;54.980;73.388;2023-06-14T12:53:50;100450.94;;;37.11;14.19